createdAt,value
2019-04-27T00:01:48.464Z,11.16
2019-04-27T00:04:48.647Z,11.17
2019-04-27T00:07:38.698Z,11.09
2019-04-27T00:10:47.135Z,11.07
2019-04-27T00:13:22.962Z,11.02
2019-04-27T00:16:13.708Z,10.97
2019-04-27T00:19:13.609Z,10.93
2019-04-27T00:22:00.633Z,10.89
2019-04-27T00:24:38.761Z,10.92
2019-04-27T00:27:13.911Z,10.78
2019-04-27T00:29:48.962Z,10.74
2019-04-27T00:32:24.191Z,10.82
2019-04-27T00:34:59.279Z,10.73
2019-04-27T00:37:53.144Z,10.80
2019-04-27T00:40:37.549Z,10.72
2019-04-27T00:43:14.094Z,10.63
2019-04-27T00:45:49.190Z,10.65
2019-04-27T00:48:24.184Z,10.54
2019-04-27T00:50:59.265Z,10.57
2019-04-27T00:53:35.316Z,10.49
2019-04-27T00:56:29.234Z,10.48
2019-04-27T00:59:33.048Z,10.38
2019-04-27T01:02:23.955Z,10.55
2019-04-27T01:04:59.031Z,10.47
2019-04-27T01:07:34.770Z,10.50
2019-04-27T01:10:09.869Z,10.52
2019-04-27T01:12:45.323Z,10.62
2019-04-27T01:15:20.422Z,10.58
2019-04-27T01:18:11.118Z,10.55
2019-04-27T01:20:32.768Z,10.54
2019-04-27T01:23:08.932Z,10.54
2019-04-27T01:26:12.533Z,10.54
2019-04-27T01:28:53.795Z,10.49
2019-04-27T01:31:29.412Z,10.41
2019-04-27T01:34:04.409Z,10.37
2019-04-27T01:36:39.397Z,10.43
2019-04-27T01:39:16.083Z,10.45
2019-04-27T01:41:51.069Z,10.47
2019-04-27T01:44:26.069Z,10.45
2019-04-27T01:47:01.107Z,10.54
2019-04-27T01:49:36.069Z,10.48
2019-04-27T01:52:11.078Z,10.40
2019-04-27T01:54:46.058Z,10.45
2019-04-27T01:57:21.360Z,10.38
2019-04-27T01:59:56.335Z,10.33
2019-04-27T02:02:39.242Z,10.29
2019-04-27T02:05:49.280Z,10.34
2019-04-27T02:08:24.370Z,10.27
2019-04-27T02:10:59.516Z,10.28
2019-04-27T02:13:34.764Z,10.29
2019-04-27T02:16:09.851Z,10.21
2019-04-27T02:18:44.826Z,10.28
2019-04-27T02:21:19.922Z,10.18
2019-04-27T02:23:54.890Z,10.07
2019-04-27T02:26:30.068Z,10.05
2019-04-27T02:29:30.878Z,10.06
2019-04-27T02:32:33.817Z,9.98
2019-04-27T02:35:14.994Z,9.91
2019-04-27T02:37:51.727Z,9.90
2019-04-27T02:40:55.946Z,9.85
2019-04-27T02:43:40.753Z,9.80
2019-04-27T02:46:15.814Z,9.79
2019-04-27T02:49:00.060Z,9.78
2019-04-27T02:51:46.082Z,9.73
2019-04-27T02:54:21.343Z,9.81
2019-04-27T02:56:56.348Z,9.67
2019-04-27T02:59:32.042Z,9.68
2019-04-27T03:02:12.748Z,9.72
2019-04-27T03:04:49.847Z,9.62
2019-04-27T03:07:24.431Z,9.73
2019-04-27T03:10:05.535Z,9.72
2019-04-27T03:12:47.228Z,9.71
2019-04-27T03:15:30.674Z,9.72
2019-04-27T03:18:32.854Z,9.67
2019-04-27T03:21:13.218Z,9.72
2019-04-27T03:23:49.948Z,9.68
2019-04-27T03:27:00.458Z,9.59
2019-04-27T03:29:34.923Z,9.60
2019-04-27T03:32:12.653Z,9.65
2019-04-27T03:34:46.661Z,9.53
2019-04-27T03:37:22.002Z,9.49
2019-04-27T03:39:59.931Z,9.37
2019-04-27T03:42:37.373Z,9.24
2019-04-27T03:45:12.606Z,9.25
2019-04-27T03:47:50.540Z,9.37
2019-04-27T03:50:33.400Z,9.36
2019-04-27T03:53:29.709Z,9.34
2019-04-27T03:56:17.249Z,9.39
2019-04-27T03:58:55.851Z,9.37
2019-04-27T04:01:30.821Z,9.29
2019-04-27T04:04:05.895Z,9.43
2019-04-27T04:06:40.878Z,9.39
2019-04-27T04:09:16.505Z,9.43
2019-04-27T04:12:02.251Z,9.37
2019-04-27T04:14:42.477Z,9.36
2019-04-27T04:17:20.535Z,9.36
2019-04-27T04:20:00.338Z,9.33
2019-04-27T04:22:34.649Z,9.28
2019-04-27T04:25:10.943Z,9.29
2019-04-27T04:27:46.893Z,9.26
2019-04-27T04:30:23.217Z,9.27
2019-04-27T04:32:59.941Z,9.29
2019-04-27T04:35:35.276Z,9.31
2019-04-27T04:38:10.640Z,9.27
2019-04-27T04:40:51.705Z,9.22
2019-04-27T04:43:35.531Z,9.14
2019-04-27T04:46:29.815Z,9.25
2019-04-27T04:49:05.475Z,9.37
2019-04-27T04:51:40.486Z,9.49
2019-04-27T04:54:15.494Z,9.50
2019-04-27T04:56:50.461Z,9.57
2019-04-27T05:00:00.351Z,9.64
2019-04-27T05:02:39.593Z,9.74
2019-04-27T05:05:15.299Z,9.76
2019-04-27T05:07:51.035Z,9.94
2019-04-27T05:10:31.266Z,10.06
2019-04-27T05:13:06.503Z,10.03
2019-04-27T05:15:41.707Z,10.15
2019-04-27T05:18:16.677Z,10.29
2019-04-27T05:20:58.587Z,10.28
2019-04-27T05:23:34.114Z,10.31
2019-04-27T05:26:09.293Z,10.35
2019-04-27T05:28:44.478Z,10.32
2019-04-27T05:31:19.601Z,10.43
2019-04-27T05:33:54.581Z,10.43
2019-04-27T05:36:48.552Z,10.51
2019-04-27T05:39:24.876Z,10.52
2019-04-27T05:41:59.723Z,10.65
2019-04-27T05:45:19.937Z,10.70
2019-04-27T05:48:13.562Z,10.85
2019-04-27T05:50:51.536Z,11.01
2019-04-27T05:53:25.290Z,11.13
2019-04-27T05:56:00.281Z,11.28
2019-04-27T05:58:35.439Z,11.42
2019-04-27T06:01:11.312Z,11.43
2019-04-27T06:03:46.594Z,11.52
2019-04-27T06:06:24.722Z,11.46
2019-04-27T06:08:59.689Z,11.64
2019-04-27T06:11:35.231Z,11.79
2019-04-27T06:14:10.223Z,11.75
2019-04-27T06:16:45.324Z,11.77
2019-04-27T06:19:20.283Z,12.02
2019-04-27T06:21:56.315Z,11.98
2019-04-27T06:24:31.393Z,12.06
2019-04-27T06:27:09.279Z,12.12
2019-04-27T06:29:44.386Z,12.20
2019-04-27T06:32:19.383Z,12.28
2019-04-27T06:34:54.348Z,12.40
2019-04-27T06:37:29.640Z,12.43
2019-04-27T06:40:05.292Z,12.44
2019-04-27T06:42:40.279Z,12.52
2019-04-27T06:45:15.563Z,12.44
2019-04-27T06:47:51.471Z,12.28
2019-04-27T06:50:26.538Z,12.41
2019-04-27T06:53:01.729Z,12.42
2019-04-27T06:55:40.668Z,12.57
2019-04-27T06:58:15.597Z,12.77
2019-04-27T07:00:50.588Z,12.73
2019-04-27T07:03:25.531Z,12.82
2019-04-27T07:06:00.677Z,12.88
2019-04-27T07:08:35.637Z,13.10
2019-04-27T07:11:11.538Z,13.26
2019-04-27T07:13:46.697Z,13.28
2019-04-27T07:16:21.893Z,13.29
2019-04-27T07:18:56.843Z,13.36
2019-04-27T07:21:32.581Z,13.32
2019-04-27T07:24:09.015Z,13.49
2019-04-27T07:26:44.931Z,13.44
2019-04-27T07:29:20.019Z,13.59
2019-04-27T07:31:55.091Z,13.46
2019-04-27T07:34:30.535Z,13.48
2019-04-27T07:37:06.463Z,13.64
2019-04-27T07:39:41.629Z,13.70
2019-04-27T07:42:16.993Z,13.64
2019-04-27T07:44:57.521Z,13.84
2019-04-27T07:47:32.749Z,13.92
2019-04-27T07:50:09.592Z,13.54
2019-04-27T07:52:44.694Z,13.80
2019-04-27T07:55:21.050Z,13.93
2019-04-27T07:57:56.199Z,14.21
2019-04-27T08:00:31.311Z,14.53
2019-04-27T08:03:06.516Z,14.52
2019-04-27T08:05:41.710Z,14.99
2019-04-27T08:08:16.725Z,15.53
2019-04-27T08:10:51.846Z,15.45
2019-04-27T08:13:26.993Z,15.49
2019-04-27T08:16:02.167Z,15.40
2019-04-27T08:18:37.264Z,15.69
2019-04-27T08:21:12.422Z,15.57
2019-04-27T08:23:48.965Z,15.13
2019-04-27T08:26:32.927Z,14.86
2019-04-27T08:29:26.811Z,15.01
2019-04-27T08:32:09.599Z,15.12
2019-04-27T08:34:44.516Z,14.70
2019-04-27T08:37:19.483Z,14.70
2019-04-27T08:39:54.553Z,14.62
2019-04-27T08:42:29.617Z,14.76
2019-04-27T08:45:09.405Z,14.75
2019-04-27T08:47:44.613Z,14.92
2019-04-27T08:50:19.664Z,15.05
2019-04-27T08:52:54.695Z,15.29
2019-04-27T08:55:29.710Z,14.72
2019-04-27T08:58:04.869Z,14.50
2019-04-27T09:00:39.894Z,14.05
2019-04-27T09:03:14.845Z,14.04
2019-04-27T09:05:50.619Z,13.96
2019-04-27T09:08:41.326Z,13.89
2019-04-27T09:11:39.230Z,13.91
2019-04-27T09:14:51.587Z,13.89
2019-04-27T09:17:31.341Z,13.75
2019-04-27T09:20:16.248Z,13.91
2019-04-27T09:22:51.300Z,14.05
2019-04-27T09:25:26.319Z,14.38
2019-04-27T09:28:01.389Z,14.43
2019-04-27T09:30:36.787Z,14.46
2019-04-27T09:33:11.938Z,14.64
2019-04-27T09:35:47.742Z,14.67
2019-04-27T09:38:22.821Z,14.79
2019-04-27T09:40:58.095Z,14.97
2019-04-27T09:43:33.791Z,14.73
2019-04-27T09:46:08.791Z,14.85
2019-04-27T09:48:43.979Z,14.87
2019-04-27T09:51:19.287Z,14.99
2019-04-27T09:53:54.228Z,14.96
2019-04-27T09:56:29.289Z,14.96
2019-04-27T09:59:04.231Z,14.70
2019-04-27T10:01:39.212Z,14.31
2019-04-27T10:04:15.679Z,13.67
2019-04-27T10:06:50.933Z,13.27
2019-04-27T10:09:26.421Z,13.32
2019-04-27T10:12:03.560Z,13.51
2019-04-27T10:14:40.723Z,13.69
2019-04-27T10:17:15.712Z,13.82
2019-04-27T10:19:50.760Z,14.10
2019-04-27T10:22:39.903Z,14.10
2019-04-27T10:25:03.164Z,13.97
2019-04-27T10:27:38.152Z,13.99
2019-04-27T10:30:13.609Z,13.94
2019-04-27T10:32:51.141Z,13.89
2019-04-27T10:35:26.183Z,14.05
2019-04-27T10:38:01.288Z,14.10
2019-04-27T10:40:36.480Z,13.82
2019-04-27T10:43:11.721Z,13.80
2019-04-27T10:45:46.935Z,13.76
2019-04-27T10:48:22.631Z,13.37
2019-04-27T10:50:57.623Z,13.35
2019-04-27T10:53:32.940Z,13.13
2019-04-27T10:56:08.106Z,13.23
2019-04-27T10:58:45.595Z,13.18
2019-04-27T11:01:20.663Z,13.05
2019-04-27T11:04:22.853Z,13.00
2019-04-27T11:07:00.902Z,12.96
2019-04-27T11:09:36.139Z,12.87
2019-04-27T11:12:11.422Z,12.74
2019-04-27T11:14:46.395Z,12.91
2019-04-27T11:17:21.649Z,13.02
2019-04-27T11:19:56.659Z,13.05
2019-04-27T11:22:31.869Z,13.20
2019-04-27T11:25:07.212Z,13.14
2019-04-27T11:27:42.294Z,13.12
2019-04-27T11:30:18.837Z,12.95
2019-04-27T11:32:56.793Z,12.56
2019-04-27T11:35:51.244Z,12.63
2019-04-27T11:38:27.540Z,12.58
2019-04-27T11:41:07.643Z,12.36
2019-04-27T11:43:48.799Z,12.19
2019-04-27T11:46:23.886Z,12.25
2019-04-27T11:48:58.888Z,12.28
2019-04-27T11:51:34.142Z,12.41
2019-04-27T11:54:45.657Z,12.47
2019-04-27T11:57:20.765Z,12.77
2019-04-27T11:59:56.286Z,12.55
2019-04-27T12:02:35.796Z,12.59
2019-04-27T12:05:13.439Z,12.48
2019-04-27T12:07:48.731Z,12.55
2019-04-27T12:10:23.893Z,12.71
2019-04-27T12:12:58.884Z,12.71
2019-04-27T12:15:36.102Z,12.64
2019-04-27T12:18:11.141Z,12.85
2019-04-27T12:20:46.202Z,12.88
2019-04-27T12:23:33.093Z,12.73
2019-04-27T12:25:57.990Z,12.87
2019-04-27T12:28:49.447Z,13.04
2019-04-27T12:31:29.480Z,12.75
2019-04-27T12:34:06.115Z,13.05
2019-04-27T12:36:41.162Z,12.79
2019-04-27T12:39:16.520Z,12.66
2019-04-27T12:41:51.915Z,12.73
2019-04-27T12:44:26.950Z,12.83
2019-04-27T12:47:02.567Z,13.00
2019-04-27T12:49:39.331Z,13.03
2019-04-27T12:52:15.922Z,12.84
2019-04-27T12:54:58.308Z,12.88
2019-04-27T12:57:54.897Z,12.94
2019-04-27T13:00:34.359Z,12.81
2019-04-27T13:03:09.595Z,12.25
2019-04-27T13:05:45.494Z,11.82
2019-04-27T13:08:20.467Z,11.67
2019-04-27T13:10:57.285Z,11.58
2019-04-27T13:13:32.442Z,11.47
2019-04-27T13:16:07.543Z,11.44
2019-04-27T13:18:42.787Z,11.18
2019-04-27T13:21:20.792Z,10.87
2019-04-27T13:24:02.037Z,10.65
2019-04-27T13:26:31.511Z,10.78
2019-04-27T13:29:06.839Z,10.54
2019-04-27T13:31:42.184Z,10.34
2019-04-27T13:34:17.233Z,10.50
2019-04-27T13:36:52.515Z,10.45
2019-04-27T13:39:27.557Z,10.25
2019-04-27T13:42:02.753Z,10.36
2019-04-27T13:44:37.754Z,10.35
2019-04-27T13:47:29.530Z,10.49
2019-04-27T13:50:22.204Z,10.71
2019-04-27T13:52:57.534Z,11.13
2019-04-27T13:55:32.759Z,11.11
2019-04-27T13:58:07.720Z,10.93
2019-04-27T14:00:42.943Z,10.89
2019-04-27T14:03:20.881Z,10.96
2019-04-27T14:05:56.759Z,11.05
2019-04-27T14:08:32.678Z,11.14
2019-04-27T14:11:09.584Z,11.13
2019-04-27T14:13:44.469Z,10.95
2019-04-27T14:16:19.511Z,10.92
2019-04-27T14:18:55.738Z,10.87
2019-04-27T14:21:32.893Z,11.12
2019-04-27T14:24:07.598Z,11.25
2019-04-27T14:26:42.869Z,11.36
2019-04-27T14:29:18.950Z,11.71
2019-04-27T14:31:54.066Z,11.70
2019-04-27T14:34:29.058Z,11.90
2019-04-27T14:37:04.440Z,11.85
2019-04-27T14:39:39.423Z,11.86
2019-04-27T14:42:14.453Z,11.66
2019-04-27T14:44:49.547Z,11.43
2019-04-27T14:47:24.545Z,11.76
2019-04-27T14:50:01.025Z,12.05
2019-04-27T14:52:36.226Z,11.90
2019-04-27T14:55:11.780Z,12.10
2019-04-27T14:57:47.062Z,12.28
2019-04-27T15:00:23.640Z,12.29
2019-04-27T15:02:59.174Z,12.58
2019-04-27T15:05:34.568Z,12.84
2019-04-27T15:08:11.477Z,12.91
2019-04-27T15:10:47.018Z,13.09
2019-04-27T15:13:22.288Z,13.25
2019-04-27T15:15:57.358Z,12.94
2019-04-27T15:18:39.905Z,13.16
2019-04-27T15:21:13.454Z,13.33
2019-04-27T15:23:48.528Z,13.27
2019-04-27T15:26:23.754Z,13.39
2019-04-27T15:29:00.896Z,13.64
2019-04-27T15:31:40.831Z,13.85
2019-04-27T15:34:28.893Z,13.97
2019-04-27T15:37:22.103Z,14.30
2019-04-27T15:40:28.958Z,14.02
2019-04-27T15:43:13.185Z,14.54
2019-04-27T15:45:48.688Z,14.49
2019-04-27T15:48:25.110Z,14.50
2019-04-27T15:51:04.774Z,14.98
2019-04-27T15:53:41.610Z,15.59
2019-04-27T15:56:18.011Z,15.86
2019-04-27T15:58:55.802Z,15.42
2019-04-27T16:01:35.900Z,15.20
2019-04-27T16:04:11.026Z,16.31
2019-04-27T16:06:47.638Z,16.91
2019-04-27T16:09:25.381Z,16.31
2019-04-27T16:12:09.663Z,16.80
2019-04-27T16:14:36.428Z,17.19
2019-04-27T16:17:12.324Z,16.16
2019-04-27T16:19:50.241Z,15.64
2019-04-27T16:22:26.844Z,15.03
2019-04-27T16:25:03.825Z,14.73
2019-04-27T16:27:38.714Z,13.76
2019-04-27T16:30:18.031Z,14.15
2019-04-27T16:32:51.852Z,14.25
2019-04-27T16:35:28.260Z,14.31
2019-04-27T16:38:40.272Z,14.11
2019-04-27T16:41:16.223Z,14.25
2019-04-27T16:43:51.315Z,14.31
2019-04-27T16:46:28.489Z,14.23
2019-04-27T16:49:13.755Z,13.93
2019-04-27T16:51:46.029Z,13.96
2019-04-27T16:54:21.533Z,13.69
2019-04-27T16:57:03.318Z,13.69
2019-04-27T16:59:43.296Z,13.63
2019-04-27T17:02:11.282Z,13.59
2019-04-27T17:04:54.186Z,13.45
2019-04-27T17:07:24.288Z,13.43
2019-04-27T17:09:59.578Z,13.43
2019-04-27T17:12:41.216Z,13.33
2019-04-27T17:15:30.063Z,13.22
2019-04-27T17:18:35.932Z,13.19
2019-04-27T17:21:18.572Z,12.88
2019-04-27T17:23:48.206Z,12.49
2019-04-27T17:26:24.239Z,12.31
2019-04-27T17:29:16.038Z,12.00
2019-04-27T17:31:50.637Z,11.85
2019-04-27T17:34:26.420Z,11.79
2019-04-27T17:37:02.150Z,11.57
2019-04-27T17:39:38.738Z,11.42
2019-04-27T17:42:13.979Z,11.42
2019-04-27T17:44:53.015Z,11.32
2019-04-27T17:47:29.791Z,11.17
2019-04-27T17:50:04.286Z,10.94
2019-04-27T17:52:40.793Z,10.88
2019-04-27T17:55:17.849Z,10.98
2019-04-27T17:57:52.789Z,10.94
2019-04-27T18:00:28.308Z,10.64
2019-04-27T18:03:03.526Z,10.48
2019-04-27T18:05:43.697Z,10.67
2019-04-27T18:08:24.568Z,10.66
2019-04-27T18:11:00.627Z,10.52
2019-04-27T18:13:32.686Z,10.45
2019-04-27T18:16:09.151Z,10.51
2019-04-27T18:19:15.545Z,10.49
2019-04-27T18:22:01.272Z,10.52
2019-04-27T18:25:06.218Z,10.60
2019-04-27T18:27:51.764Z,10.79
2019-04-27T18:30:40.456Z,10.73
2019-04-27T18:33:14.556Z,10.81
2019-04-27T18:35:49.794Z,10.73
2019-04-27T18:38:24.779Z,10.82
2019-04-27T18:41:02.948Z,10.81
2019-04-27T18:43:38.890Z,10.87
2019-04-27T18:46:14.771Z,10.95
2019-04-27T18:49:11.268Z,10.99
2019-04-27T18:52:06.139Z,10.96
2019-04-27T18:54:42.153Z,10.88
2019-04-27T18:57:17.491Z,10.83
2019-04-27T18:59:52.674Z,10.80
2019-04-27T19:02:29.382Z,10.85
2019-04-27T19:05:04.504Z,10.84
2019-04-27T19:07:41.392Z,10.73
2019-04-27T19:10:16.441Z,10.72
2019-04-27T19:12:51.957Z,10.70
2019-04-27T19:15:28.584Z,10.80
2019-04-27T19:18:04.091Z,10.77
2019-04-27T19:20:39.165Z,10.58
2019-04-27T19:23:14.193Z,10.54
2019-04-27T19:26:23.973Z,10.66
2019-04-27T19:29:05.850Z,10.58
2019-04-27T19:31:45.643Z,10.46
2019-04-27T19:34:20.740Z,10.44
2019-04-27T19:36:55.738Z,10.40
2019-04-27T19:39:30.870Z,10.26
2019-04-27T19:42:05.989Z,10.31
2019-04-27T19:44:41.111Z,10.36
2019-04-27T19:47:16.086Z,10.31
2019-04-27T19:49:51.389Z,10.08
2019-04-27T19:52:27.771Z,9.91
2019-04-27T19:55:05.980Z,9.85
2019-04-27T19:57:42.107Z,9.89
2019-04-27T20:00:35.338Z,9.96
2019-04-27T20:03:12.021Z,9.89
2019-04-27T20:05:47.066Z,9.99
2019-04-27T20:08:24.693Z,10.02
2019-04-27T20:11:02.131Z,10.12
2019-04-27T20:13:37.216Z,10.12
2019-04-27T20:16:12.553Z,10.24
2019-04-27T20:18:47.557Z,10.21
2019-04-27T20:21:22.712Z,10.16
2019-04-27T20:23:57.755Z,10.21
2019-04-27T20:26:33.037Z,10.30
2019-04-27T20:29:08.175Z,10.25
2019-04-27T20:31:43.379Z,10.20
2019-04-27T20:34:18.396Z,10.17
2019-04-27T20:36:53.544Z,10.23
2019-04-27T20:39:28.535Z,10.28
2019-04-27T20:42:03.713Z,10.19
2019-04-27T20:44:38.796Z,10.14
2019-04-27T20:47:13.857Z,10.15
2019-04-27T20:49:48.920Z,10.17
2019-04-27T20:52:37.603Z,10.10
2019-04-27T20:55:13.516Z,10.04
2019-04-27T20:57:58.702Z,10.06
2019-04-27T21:00:25.232Z,10.02
2019-04-27T21:03:08.889Z,9.94
2019-04-27T21:06:11.982Z,9.91
2019-04-27T21:08:46.933Z,9.84
2019-04-27T21:11:22.016Z,9.85
2019-04-27T21:13:57.250Z,9.85
2019-04-27T21:16:33.069Z,9.92
2019-04-27T21:19:08.116Z,9.99
2019-04-27T21:21:43.405Z,9.94
2019-04-27T21:24:18.368Z,9.95
2019-04-27T21:26:54.273Z,9.87
2019-04-27T21:29:31.022Z,9.82
2019-04-27T21:32:07.940Z,9.78
2019-04-27T21:34:43.222Z,9.65
2019-04-27T21:37:18.211Z,9.51
2019-04-27T21:40:14.242Z,9.47
2019-04-27T21:42:51.138Z,9.44
2019-04-27T21:45:26.221Z,9.26
2019-04-27T21:48:01.321Z,9.26
2019-04-27T21:50:36.296Z,9.22
2019-04-27T21:53:35.534Z,9.22
2019-04-27T21:56:11.372Z,9.19
2019-04-27T21:58:46.305Z,9.08
2019-04-27T22:01:27.247Z,8.97
2019-04-27T22:04:03.464Z,8.94
2019-04-27T22:06:38.684Z,8.86
2019-04-27T22:09:15.899Z,8.93
2019-04-27T22:11:51.173Z,8.81
2019-04-27T22:14:26.179Z,8.72
2019-04-27T22:17:01.388Z,8.55
2019-04-27T22:19:36.368Z,8.54
2019-04-27T22:22:21.160Z,8.63
2019-04-27T22:25:05.967Z,8.56
2019-04-27T22:27:41.465Z,8.45
2019-04-27T22:30:16.837Z,8.45
2019-04-27T22:32:52.207Z,8.49
2019-04-27T22:35:27.209Z,8.45
2019-04-27T22:38:03.503Z,8.39
2019-04-27T22:40:58.463Z,8.29
2019-04-27T22:43:44.643Z,8.14
2019-04-27T22:46:21.803Z,8.16
2019-04-27T22:48:56.840Z,8.12
2019-04-27T22:51:32.181Z,8.02
2019-04-27T22:54:07.157Z,8.03
2019-04-27T22:56:43.543Z,8.05
2019-04-27T22:59:23.961Z,8.01
2019-04-27T23:02:21.752Z,7.84
2019-04-27T23:05:01.902Z,7.85
2019-04-27T23:07:37.027Z,7.88
2019-04-27T23:10:12.267Z,7.81
2019-04-27T23:12:47.606Z,7.77
2019-04-27T23:15:25.237Z,7.73
2019-04-27T23:18:00.224Z,7.65
2019-04-27T23:20:35.304Z,7.65
2019-04-27T23:23:11.360Z,7.62
2019-04-27T23:25:46.404Z,7.61
2019-04-27T23:28:21.485Z,7.47
2019-04-27T23:31:12.124Z,7.51
2019-04-27T23:33:48.550Z,7.38
2019-04-27T23:36:23.600Z,7.34
2019-04-27T23:38:58.687Z,7.35
2019-04-27T23:41:34.321Z,7.42
2019-04-27T23:44:09.283Z,7.28
2019-04-27T23:46:44.290Z,7.28
2019-04-27T23:49:20.597Z,7.29
2019-04-27T23:52:00.767Z,7.37
2019-04-27T23:54:35.778Z,7.24
2019-04-27T23:57:11.763Z,7.24
2019-04-27T23:59:46.794Z,7.31
